Time;durP1;ratioP1;P1;durP2;ratioP2;P2;SDS_P1;SDS_P2;PMS_P1;PMS_P2;Temp;Humidity;BMP_temperature;BMP_pressure;BME280_temperature;BME280_humidity;BME280_pressure;Samples;Min_cycle;Max_cycle;Signal;HPM_P1;HPM_P2
2022/05/07 00:00:22;;;;;;;;;;;;;;;10.39;71.20;97476.06;30001;983;1877;-62
2022/05/07 00:00:53;;;;;;;;;;;;;;;10.39;70.64;97478.78;30001;983;1881;-61
2022/05/07 00:01:24;;;;;;;;;;;;;;;10.37;70.93;97478.25;30001;983;1877;-62
2022/05/07 00:01:55;;;;;;;;;;;;;;;10.37;71.40;97478.25;30001;983;1868;-62
2022/05/07 00:02:26;;;;;;;;;;;;;;;10.36;71.41;97476.63;30001;983;1868;-61
2022/05/07 00:02:57;;;;;;;;;;;;;;;10.36;71.16;97476.63;30001;983;1881;-62
2022/05/07 00:03:28;;;;;;;;;;;;;;;10.34;71.31;97468.75;30001;982;1877;-62
2022/05/07 00:03:58;;;;;;;;;;;;;;;10.35;71.23;97475.00;30001;982;1882;-62
2022/05/07 00:04:29;;;;;;;;;;;;;;;10.34;71.07;97473.38;30001;982;1877;-61
2022/05/07 00:05:00;;;;;;;;;;;;;;;10.34;70.96;97467.94;30001;982;1882;-62
2022/05/07 00:05:31;;;;;;;;;;;;;;;10.35;71.37;97475.81;30001;982;1877;-62
2022/05/07 00:06:03;;;;;;;;;;;;;;;10.33;71.06;97467.12;30001;983;1881;-62
2022/05/07 00:06:33;;;;;;;;;;;;;;;10.35;71.16;97469.56;30001;983;1877;-61
2022/05/07 00:07:05;;;;;;;;;;;;;;;10.35;71.13;97470.37;30001;983;1868;-62
2022/05/07 00:07:36;;;;;;;;;;;;;;;10.36;70.87;97471.19;30001;983;1868;-61
2022/05/07 00:08:07;;;;;;;;;;;;;;;10.36;70.58;97465.78;30001;983;1881;-60
2022/05/07 00:08:37;;;;;;;;;;;;;;;10.36;70.68;97476.63;30001;969;1898;-62
2022/05/07 00:09:08;;;;;;;;;;;;;;;10.36;70.58;97463.87;30001;983;1881;-61
2022/05/07 00:09:39;;;;;;;;;;;;;;;10.37;70.64;97472.81;30001;983;1877;-61
2022/05/07 00:10:10;;;;;;;;;;;;;;;10.39;70.23;97474.19;30001;982;1868;-62
2022/05/07 00:10:42;;;;;;;;;;;;;;;10.39;69.99;97465.22;30001;982;1869;-61
2022/05/07 00:11:15;;;;;;;;;;;;;;;10.41;70.03;97468.44;30001;982;1882;-63
2022/05/07 00:11:48;;;;;;;;;;;;;;;10.40;69.75;97466.81;30001;982;1878;-62
2022/05/07 00:12:19;;;;;;;;;;;;;;;10.41;69.64;97468.44;30001;982;1882;-62
2022/05/07 00:12:50;;;;;;;;;;;;;;;10.42;70.10;97470.06;30001;982;1877;-60
2022/05/07 00:13:21;;;;;;;;;;;;;;;10.43;69.92;97468.16;30001;983;1881;-62
2022/05/07 00:13:52;;;;;;;;;;;;;;;10.43;69.92;97468.97;30001;983;1877;-61
2022/05/07 00:14:22;;;;;;;;;;;;;;;10.44;69.81;97469.78;30001;983;1881;-62
2022/05/07 00:14:53;;;;;;;;;;;;;;;10.44;69.69;97461.66;30001;983;1877;-62
2022/05/07 00:15:24;;;;;;;;;;;;;;;10.45;69.73;97468.69;30001;983;1868;-61
2022/05/07 00:18:22;;;;;;;;;;;;;;;10.47;69.62;97463.81;30001;982;1869;-61
2022/05/07 00:18:52;;;;;;;;;;;;;;;10.46;69.26;97462.19;30001;982;1868;-62
2022/05/07 00:19:23;;;;;;;;;;;;;;;10.46;69.57;97460.28;30001;982;1882;-61
2022/05/07 00:19:54;;;;;;;;;;;;;;;10.46;69.50;97465.72;30001;982;1877;-61
2022/05/07 00:20:25;;;;;;;;;;;;;;;10.46;69.63;97465.72;30001;982;1882;-61
2022/05/07 00:20:56;;;;;;;;;;;;;;;10.47;69.49;97461.91;30001;983;1877;-62
2022/05/07 00:21:27;;;;;;;;;;;;;;;10.47;69.13;97463.81;30001;983;1868;-62
2022/05/07 00:21:58;;;;;;;;;;;;;;;10.46;69.37;97454.87;30001;983;1855;-62
2022/05/07 00:22:29;;;;;;;;;;;;;;;10.46;69.53;97460.28;30001;983;1881;-62
2022/05/07 00:23:04;;;;;;;;;;;;;;;10.46;69.26;97462.19;30001;983;1863;-62
2022/05/07 00:23:34;;;;;;;;;;;;;;;10.46;69.34;97460.28;30001;983;1873;-60
2022/05/07 00:24:06;;;;;;;;;;;;;;;10.46;69.52;97460.28;30001;983;1877;-62
2022/05/07 00:24:37;;;;;;;;;;;;;;;10.46;69.61;97460.28;30001;983;1881;-61
2022/05/07 00:25:09;;;;;;;;;;;;;;;10.46;69.30;97460.28;30001;982;1877;-62
2022/05/07 00:25:40;;;;;;;;;;;;;;;10.46;69.47;97459.47;30001;982;1882;-62
2022/05/07 00:26:11;;;;;;;;;;;;;;;10.47;69.21;97456.47;30001;982;1864;-62
2022/05/07 00:26:41;;;;;;;;;;;;;;;10.48;69.26;97460.00;30001;982;1873;-62
2022/05/07 00:27:13;;;;;;;;;;;;;;;10.47;69.13;97456.47;30001;982;1864;-61
2022/05/07 00:27:44;;;;;;;;;;;;;;;10.49;69.07;97459.72;30001;982;1873;-61
2022/05/07 00:28:15;;;;;;;;;;;;;;;10.49;69.12;97462.44;30001;982;1878;-60
2022/05/07 00:28:46;;;;;;;;;;;;;;;10.49;69.09;97462.44;30001;983;1881;-61
2022/05/07 00:29:17;;;;;;;;;;;;;;;10.50;68.98;97450.50;30001;983;1877;-61
2022/05/07 00:29:49;;;;;;;;;;;;;;;10.50;68.71;97458.66;30001;987;1881;-62
2022/05/07 00:30:21;;;;;;;;;;;;;;;10.51;68.94;97448.59;30001;983;1877;-60
2022/05/07 00:30:52;;;;;;;;;;;;;;;10.51;68.86;97457.56;30001;983;1881;-61
2022/05/07 00:31:23;;;;;;;;;;;;;;;10.52;68.93;97453.75;30001;983;1877;-61
2022/05/07 00:31:54;;;;;;;;;;;;;;;10.54;68.83;97462.44;30001;983;1868;-61
2022/05/07 00:32:26;;;;;;;;;;;;;;;10.54;68.67;97451.56;30001;983;1868;-61
2022/05/07 00:32:57;;;;;;;;;;;;;;;10.54;68.58;97446.16;30001;982;1882;-61
2022/05/07 00:33:28;;;;;;;;;;;;;;;10.55;68.91;97449.66;30001;982;1877;-61
2022/05/07 00:33:59;;;;;;;;;;;;;;;10.55;68.75;97458.62;30001;982;1882;-62
2022/05/07 00:34:30;;;;;;;;;;;;;;;10.54;68.64;97451.56;30001;982;1878;-62
2022/05/07 00:35:00;;;;;;;;;;;;;;;10.54;69.02;97451.56;30001;982;1882;-62
2022/05/07 00:35:31;;;;;;;;;;;;;;;10.54;68.88;97450.75;30001;982;1878;-62
2022/05/07 00:36:02;;;;;;;;;;;;;;;10.53;68.79;97451.84;30001;983;1881;-61
2022/05/07 00:36:33;;;;;;;;;;;;;;;10.51;69.00;97452.12;30001;983;1877;-62
2022/05/07 00:37:05;;;;;;;;;;;;;;;10.51;68.94;97457.56;30001;983;1868;-61
2022/05/07 00:37:36;;;;;;;;;;;;;;;10.50;69.25;97458.66;30001;983;1868;-61
2022/05/07 00:38:07;;;;;;;;;;;;;;;10.50;68.81;97455.13;30001;983;1882;-61
2022/05/07 00:38:37;;;;;;;;;;;;;;;10.49;69.19;97446.16;30001;983;1877;-61
2022/05/07 00:39:08;;;;;;;;;;;;;;;10.50;69.09;97458.66;30001;983;1881;-62
2022/05/07 00:39:39;;;;;;;;;;;;;;;10.49;69.32;97454.31;30001;983;1877;-63
2022/05/07 00:40:10;;;;;;;;;;;;;;;10.48;69.00;97458.09;30001;982;1882;-62
2022/05/07 00:40:40;;;;;;;;;;;;;;;10.47;69.94;97456.47;30001;982;1877;-61
2022/05/07 00:41:12;;;;;;;;;;;;;;;10.42;70.82;97459.22;30001;982;1882;-62
2022/05/07 00:41:42;;;;;;;;;;;;;;;10.36;71.90;97465.78;30001;982;1877;-61
2022/05/07 00:42:13;;;;;;;;;;;;;;;10.29;72.42;97455.22;30001;982;1869;-62
2022/05/07 00:42:44;;;;;;;;;;;;;;;10.25;71.95;97453.34;30001;983;1764;-62
2022/05/07 00:43:18;;;;;;;;;;;;;;;10.22;72.68;97456.59;30001;983;1881;-62
2022/05/07 00:43:49;;;;;;;;;;;;;;;10.20;71.78;97458.78;30001;983;1864;-62
2022/05/07 00:44:22;;;;;;;;;;;;;;;10.18;71.95;97455.50;30001;983;1873;-62
2022/05/07 00:44:53;;;;;;;;;;;;;;;10.17;72.00;97453.88;30001;983;1840;-62
2022/05/07 00:45:24;;;;;;;;;;;;;;;10.16;71.92;97455.75;30001;987;1873;-62
2022/05/07 00:45:55;;;;;;;;;;;;;;;10.17;71.78;97453.88;30001;983;1881;-62
2022/05/07 00:46:26;;;;;;;;;;;;;;;10.15;71.44;97453.31;30001;983;1877;-63
2022/05/07 00:47:09;;;;;;;;;;;;;;;10.14;71.95;97457.13;30001;983;1881;-62
2022/05/07 00:47:40;;;;;;;;;;;;;;;10.13;71.81;97455.50;30001;982;1760;-61
2022/05/07 00:48:12;;;;;;;;;;;;;;;10.11;71.99;97457.66;30001;982;1873;-63
2022/05/07 00:48:43;;;;;;;;;;;;;;;10.08;72.00;97449.00;30001;982;1878;-60
2022/05/07 00:49:14;;;;;;;;;;;;;;;10.07;72.45;97452.81;30001;982;1882;-62
2022/05/07 00:49:47;;;;;;;;;;;;;;;10.06;72.22;97445.75;30001;982;1878;-61
2022/05/07 00:51:55;;;;;;;;;;;;;;;10.04;72.09;97458.81;30001;983;1873;-61
2022/05/07 00:52:26;;;;;;;;;;;;;;;10.04;72.12;97447.97;30001;983;1877;-61
2022/05/07 00:53:00;;;;;;;;;;;;;;;10.04;72.33;97450.66;30001;983;1881;-61
2022/05/07 00:53:31;;;;;;;;;;;;;;;10.04;72.11;97452.56;30001;983;1864;-61
2022/05/07 00:54:03;;;;;;;;;;;;;;;10.03;72.07;97451.75;30001;983;1860;-63
2022/05/07 00:54:34;;;;;;;;;;;;;;;10.03;71.87;97446.34;30001;983;1877;-62
2022/05/07 00:55:06;;;;;;;;;;;;;;;10.03;72.26;97438.19;30001;983;1881;-60
2022/05/07 00:55:37;;;;;;;;;;;;;;;10.03;71.73;97457.19;30001;982;1877;-62
2022/05/07 00:56:08;;;;;;;;;;;;;;;10.03;71.97;97446.34;30001;982;1869;-61
2022/05/07 00:56:39;;;;;;;;;;;;;;;10.03;71.85;97442.81;30001;982;1869;-62
2022/05/07 00:57:10;;;;;;;;;;;;;;;10.02;71.95;97446.59;30001;982;1869;-60
2022/05/07 00:57:41;;;;;;;;;;;;;;;10.02;71.85;97449.31;30001;983;1868;-62
2022/05/07 00:58:12;;;;;;;;;;;;;;;10.00;71.98;97446.88;30001;983;1881;-62
2022/05/07 00:58:45;;;;;;;;;;;;;;;10.00;71.97;97444.16;30001;965;1895;-62
2022/05/07 00:59:16;;;;;;;;;;;;;;;10.00;72.07;97441.47;30001;983;1868;-61
2022/05/07 00:59:48;;;;;;;;;;;;;;;10.01;71.95;97445.78;30001;983;1855;-63
2022/05/07 01:00:19;;;;;;;;;;;;;;;10.01;72.05;97448.50;30001;983;1881;-61
2022/05/07 01:00:53;;;;;;;;;;;;;;;10.00;71.93;97437.94;30001;983;1877;-62
2022/05/07 01:01:25;;;;;;;;;;;;;;;10.00;71.94;97444.16;30001;983;1882;-63
2022/05/07 01:01:57;;;;;;;;;;;;;;;10.01;71.78;97445.78;30001;983;1877;-61
2022/05/07 01:02:27;;;;;;;;;;;;;;;10.00;71.83;97440.66;30001;983;1882;-61
2022/05/07 01:02:59;;;;;;;;;;;;;;;9.99;71.61;97439.84;30001;982;1877;-61
2022/05/07 01:03:32;;;;;;;;;;;;;;;10.00;72.03;97437.94;30001;982;1882;-62
2022/05/07 01:04:03;;;;;;;;;;;;;;;9.99;71.92;97437.12;30001;982;1877;-61
2022/05/07 01:04:36;;;;;;;;;;;;;;;10.01;72.04;97439.56;30001;982;1882;-62
2022/05/07 01:05:10;;;;;;;;;;;;;;;10.00;71.83;97437.94;30001;982;1864;-60
2022/05/07 01:05:41;;;;;;;;;;;;;;;10.00;72.04;97441.47;30001;983;1872;-62
2022/05/07 01:06:13;;;;;;;;;;;;;;;9.99;71.58;97439.84;30001;983;1877;-60
2022/05/07 01:06:44;;;;;;;;;;;;;;;10.00;71.96;97438.75;30001;983;1881;-61
2022/05/07 01:07:15;;;;;;;;;;;;;;;10.00;71.90;97446.06;30001;983;1877;-62
2022/05/07 01:07:46;;;;;;;;;;;;;;;10.00;71.87;97437.94;30001;983;1881;-61
2022/05/07 01:08:18;;;;;;;;;;;;;;;9.99;71.70;97434.41;30001;983;1877;-61
2022/05/07 01:08:49;;;;;;;;;;;;;;;10.00;71.74;97440.66;30001;983;1882;-61
2022/05/07 01:09:20;;;;;;;;;;;;;;;9.99;71.60;97434.41;30001;983;1877;-62
2022/05/07 01:09:52;;;;;;;;;;;;;;;10.00;71.55;97435.22;30001;983;1882;-61
2022/05/07 01:10:23;;;;;;;;;;;;;;;10.01;71.69;97437.66;30001;982;1864;-60
2022/05/07 01:10:55;;;;;;;;;;;;;;;10.02;71.56;97433.88;30001;982;1873;-61
2022/05/07 01:11:27;;;;;;;;;;;;;;;10.03;71.29;97435.50;30001;982;1877;-62
2022/05/07 01:11:57;;;;;;;;;;;;;;;10.03;71.31;97438.19;30001;982;1882;-62
2022/05/07 01:12:29;;;;;;;;;;;;;;;10.05;71.12;97432.47;30001;982;1878;-61
2022/05/07 01:13:00;;;;;;;;;;;;;;;10.05;71.07;97438.69;30001;983;1881;-61
2022/05/07 01:13:34;;;;;;;;;;;;;;;10.07;70.96;97438.44;30001;983;1877;-62
2022/05/07 01:14:05;;;;;;;;;;;;;;;10.08;71.07;97429.22;30001;983;1881;-62
2022/05/07 01:14:35;;;;;;;;;;;;;;;10.09;70.67;97431.66;30001;983;1877;-62
2022/05/07 01:15:07;;;;;;;;;;;;;;;10.11;70.50;97438.69;30001;983;1881;-60
2022/05/07 01:15:42;;;;;;;;;;;;;;;10.12;70.30;97433.00;30001;983;1864;-62
2022/05/07 01:16:13;;;;;;;;;;;;;;;10.14;70.52;97438.16;30001;983;1873;-62
2022/05/07 01:16:44;;;;;;;;;;;;;;;10.17;70.02;97432.16;30001;983;1877;-62
2022/05/07 01:17:15;;;;;;;;;;;;;;;10.18;70.18;97436.50;30001;982;1882;-61
2022/05/07 01:17:46;;;;;;;;;;;;;;;10.18;70.38;97436.50;30001;982;1877;-62
2022/05/07 01:18:17;;;;;;;;;;;;;;;10.18;70.26;97431.09;30001;982;1882;-61
2022/05/07 01:18:48;;;;;;;;;;;;;;;10.17;70.08;97435.69;30001;982;1878;-62
2022/05/07 01:19:19;;;;;;;;;;;;;;;10.15;70.30;97435.16;30001;982;1882;-62
2022/05/07 01:19:53;;;;;;;;;;;;;;;10.15;70.39;97437.06;30001;982;1878;-63
2022/05/07 01:20:24;;;;;;;;;;;;;;;10.16;70.50;97433.25;30001;983;1868;-63
2022/05/07 01:20:55;;;;;;;;;;;;;;;10.17;70.64;97434.88;30001;983;1855;-61
2022/05/07 01:21:27;;;;;;;;;;;;;;;10.18;70.17;97431.09;30001;983;1881;-62
2022/05/07 01:21:58;;;;;;;;;;;;;;;10.17;70.11;97429.47;30001;983;1877;-62
2022/05/07 01:22:30;;;;;;;;;;;;;;;10.17;70.44;97432.16;30001;983;1881;-61
2022/05/07 01:23:01;;;;;;;;;;;;;;;10.15;70.60;97432.44;30001;983;1877;-60
2022/05/07 01:23:32;;;;;;;;;;;;;;;10.15;70.80;97437.06;30001;983;1868;-63
2022/05/07 01:24:04;;;;;;;;;;;;;;;10.14;70.59;97430.00;30001;983;1868;-61
2022/05/07 01:24:35;;;;;;;;;;;;;;;10.14;70.47;97438.16;30001;982;1882;-62
2022/05/07 01:25:06;;;;;;;;;;;;;;;10.15;70.83;97431.63;30001;982;1877;-62
2022/05/07 01:25:37;;;;;;;;;;;;;;;10.14;70.85;97435.44;30001;982;1882;-62
2022/05/07 01:26:09;;;;;;;;;;;;;;;10.08;72.79;97432.72;30001;982;1877;-61
2022/05/07 01:26:40;;;;;;;;;;;;;;;10.01;73.52;97437.66;30001;982;1882;-62
2022/05/07 01:27:10;;;;;;;;;;;;;;;9.96;73.31;97432.25;30001;982;1877;-62
2022/05/07 01:27:41;;;;;;;;;;;;;;;9.93;73.75;97438.22;30001;982;1882;-62
2022/05/07 01:28:12;;;;;;;;;;;;;;;9.88;73.83;97432.81;30001;983;1877;-62
2022/05/07 01:28:44;;;;;;;;;;;;;;;9.85;73.77;97427.13;30001;983;1868;-63
2022/05/07 01:29:14;;;;;;;;;;;;;;;9.84;74.08;97436.34;30001;983;1868;-62
2022/05/07 01:29:46;;;;;;;;;;;;;;;9.80;74.24;97436.06;30001;983;1881;-61
2022/05/07 01:30:17;;;;;;;;;;;;;;;9.78;74.39;97437.44;30001;983;1877;-62
2022/05/07 01:30:48;;;;;;;;;;;;;;;9.76;74.75;97443.13;30001;983;1881;-61
2022/05/07 01:31:19;;;;;;;;;;;;;;;9.73;74.09;97443.66;30001;983;1877;-61
2022/05/07 01:31:50;;;;;;;;;;;;;;;9.72;74.24;97439.34;30001;983;1881;-61
2022/05/07 01:32:22;;;;;;;;;;;;;;;9.72;74.09;97439.34;30001;982;1877;-61
2022/05/07 01:32:53;;;;;;;;;;;;;;;9.71;74.02;97443.94;30001;982;1882;-62
2022/05/07 01:33:24;;;;;;;;;;;;;;;9.70;73.46;97436.12;30001;982;1878;-63
2022/05/07 01:33:56;;;;;;;;;;;;;;;9.69;73.59;97439.91;30001;982;1869;-62
2022/05/07 01:34:27;;;;;;;;;;;;;;;9.68;73.50;97432.87;30001;982;1869;-62
2022/05/07 01:34:58;;;;;;;;;;;;;;;9.67;73.96;97439.37;30001;985;1882;-63
2022/05/07 01:35:29;;;;;;;;;;;;;;;9.66;73.66;97441.25;30001;983;1877;-61
2022/05/07 01:36:01;;;;;;;;;;;;;;;9.65;73.63;97436.12;30001;983;1881;-61
2022/05/07 01:36:32;;;;;;;;;;;;;;;9.64;73.43;97442.63;30001;983;1877;-61
2022/05/07 01:37:04;;;;;;;;;;;;;;;9.61;73.76;97437.75;30001;983;1868;-62
2022/05/07 01:37:35;;;;;;;;;;;;;;;9.61;74.12;97438.56;30001;983;1868;-62
2022/05/07 01:38:06;;;;;;;;;;;;;;;9.57;74.14;97434.75;30001;983;1881;-62
2022/05/07 01:38:38;;;;;;;;;;;;;;;9.53;75.83;97441.00;30001;983;1864;-63
2022/05/07 01:39:09;;;;;;;;;;;;;;;9.47;75.75;97436.66;30001;983;1872;-60
2022/05/07 01:39:40;;;;;;;;;;;;;;;9.41;75.40;97433.94;30001;982;1877;-63
2022/05/07 01:40:13;;;;;;;;;;;;;;;9.39;75.35;97436.12;30001;982;1881;-61
2022/05/07 01:40:44;;;;;;;;;;;;;;;9.39;75.22;97438.81;30001;982;1877;-61
2022/05/07 01:41:15;;;;;;;;;;;;;;;9.39;75.25;97438.81;30001;982;1882;-62
2022/05/07 01:41:46;;;;;;;;;;;;;;;9.41;74.80;97438.56;30001;982;1878;-62
2022/05/07 01:42:17;;;;;;;;;;;;;;;9.41;75.05;97433.94;30001;982;1882;-61
2022/05/07 01:42:47;;;;;;;;;;;;;;;9.41;74.85;97433.94;30001;982;1878;-61
2022/05/07 01:43:18;;;;;;;;;;;;;;;9.41;74.78;97433.94;30001;983;1881;-61
2022/05/07 01:43:49;;;;;;;;;;;;;;;9.41;74.70;97430.44;30001;983;1864;-63
2022/05/07 01:44:20;;;;;;;;;;;;;;;9.41;74.81;97438.56;30001;983;1872;-64
2022/05/07 01:44:51;;;;;;;;;;;;;;;9.40;74.50;97426.09;30001;983;1877;-62
2022/05/07 01:45:21;;;;;;;;;;;;;;;9.41;74.64;97425.81;30001;983;1782;-62
2022/05/07 01:45:52;;;;;;;;;;;;;;;9.40;74.64;97424.19;30001;983;1877;-62
2022/05/07 01:48:09;;;;;;;;;;;;;;;9.44;74.67;97429.09;30001;982;1873;-62
2022/05/07 01:48:40;;;;;;;;;;;;;;;9.44;74.36;97429.09;30001;982;1878;-62
2022/05/07 01:49:12;;;;;;;;;;;;;;;9.45;74.47;97430.69;30001;982;1882;-61
2022/05/07 01:49:43;;;;;;;;;;;;;;;9.45;74.33;97433.41;30001;983;1877;-62
2022/05/07 01:50:14;;;;;;;;;;;;;;;9.45;74.12;97428.00;30001;983;1868;-61
2022/05/07 01:50:45;;;;;;;;;;;;;;;9.46;74.28;97429.62;30001;983;1868;-63
2022/05/07 01:51:18;;;;;;;;;;;;;;;9.47;74.00;97431.25;30001;983;1868;-62
2022/05/07 01:51:48;;;;;;;;;;;;;;;9.46;74.16;97425.00;30001;983;1868;-64
2022/05/07 01:52:21;;;;;;;;;;;;;;;9.48;74.13;97432.87;30001;983;1881;-63
2022/05/07 01:52:51;;;;;;;;;;;;;;;9.48;73.98;97438.28;30001;983;1864;-61
2022/05/07 01:53:22;;;;;;;;;;;;;;;9.49;74.15;97429.09;30001;983;1873;-63
2022/05/07 01:53:53;;;;;;;;;;;;;;;9.49;74.41;97429.09;30001;983;1877;-63
2022/05/07 01:54:24;;;;;;;;;;;;;;;9.50;74.10;97430.69;30001;983;1881;-62
2022/05/07 01:54:54;;;;;;;;;;;;;;;9.51;74.04;97443.97;30001;982;1878;-62
2022/05/07 01:55:27;;;;;;;;;;;;;;;9.51;74.04;97432.31;30001;982;1882;-62
2022/05/07 01:55:58;;;;;;;;;;;;;;;9.50;73.86;97431.50;30001;982;1877;-60
2022/05/07 01:56:28;;;;;;;;;;;;;;;9.50;74.11;97431.50;30001;982;1882;-62
2022/05/07 01:56:59;;;;;;;;;;;;;;;9.51;73.59;97430.44;30001;982;1864;-62
2022/05/07 01:57:30;;;;;;;;;;;;;;;9.52;73.96;97433.94;30001;983;1872;-61
2022/05/07 01:58:02;;;;;;;;;;;;;;;9.52;73.93;97434.78;30001;983;1877;-61
2022/05/07 01:58:33;;;;;;;;;;;;;;;9.52;73.94;97431.25;30001;983;1868;-61
2022/05/07 01:59:04;;;;;;;;;;;;;;;9.53;73.52;97430.16;30001;983;1868;-61
2022/05/07 01:59:35;;;;;;;;;;;;;;;9.52;73.87;97434.78;30001;983;1881;-61
2022/05/07 02:00:07;;;;;;;;;;;;;;;9.52;73.63;97429.34;30001;986;1877;-63
2022/05/07 02:00:41;;;;;;;;;;;;;;;9.54;73.87;97434.50;30001;983;1881;-61
2022/05/07 02:01:12;;;;;;;;;;;;;;;9.53;73.74;97436.41;30001;983;1877;-61
2022/05/07 02:01:43;;;;;;;;;;;;;;;9.53;73.73;97430.16;30001;983;1868;-63
2022/05/07 02:02:14;;;;;;;;;;;;;;;9.53;73.72;97432.87;30001;983;1855;-62
2022/05/07 02:02:44;;;;;;;;;;;;;;;9.54;73.73;97431.78;30001;982;1882;-63
2022/05/07 02:03:15;;;;;;;;;;;;;;;9.54;73.59;97437.19;30001;982;1877;-62
2022/05/07 02:03:46;;;;;;;;;;;;;;;9.54;73.69;97431.78;30001;982;1882;-62
2022/05/07 02:04:18;;;;;;;;;;;;;;;9.54;73.34;97435.31;30001;982;1878;-61
2022/05/07 02:04:48;;;;;;;;;;;;;;;9.54;73.45;97429.88;30001;983;1881;-62
2022/05/07 02:05:20;;;;;;;;;;;;;;;9.55;73.27;97430.69;30001;983;1877;-62
2022/05/07 02:05:51;;;;;;;;;;;;;;;9.55;73.61;97436.12;30001;983;1881;-61
2022/05/07 02:06:22;;;;;;;;;;;;;;;9.56;73.23;97429.62;30001;983;1877;-62
2022/05/07 02:06:52;;;;;;;;;;;;;;;9.56;73.65;97429.62;30001;983;1868;-61
2022/05/07 02:07:23;;;;;;;;;;;;;;;9.57;73.13;97431.25;30001;983;1868;-61
2022/05/07 02:07:55;;;;;;;;;;;;;;;9.57;73.38;97436.66;30001;983;1881;-60
2022/05/07 02:08:26;;;;;;;;;;;;;;;9.57;73.28;97436.66;30001;983;1877;-62
2022/05/07 02:08:56;;;;;;;;;;;;;;;9.56;73.34;97435.03;30001;983;1882;-61
2022/05/07 02:09:27;;;;;;;;;;;;;;;9.54;74.33;97432.59;30001;983;1877;-62
2022/05/07 02:09:58;;;;;;;;;;;;;;;9.52;74.42;97444.78;30001;982;1882;-62
2022/05/07 02:10:29;;;;;;;;;;;;;;;9.48;74.17;97436.41;30001;982;1877;-61
2022/05/07 02:11:01;;;;;;;;;;;;;;;9.48;74.59;97441.00;30001;982;1869;-62
2022/05/07 02:11:35;;;;;;;;;;;;;;;9.46;74.32;97435.03;30001;982;1869;-61
2022/05/07 02:12:06;;;;;;;;;;;;;;;9.46;74.69;97435.03;30001;982;1882;-64
2022/05/07 02:12:37;;;;;;;;;;;;;;;9.46;74.23;97440.47;30001;983;1863;-62
2022/05/07 02:13:08;;;;;;;;;;;;;;;9.44;74.37;97437.19;30001;983;1872;-61
2022/05/07 02:13:39;;;;;;;;;;;;;;;9.44;74.19;97442.63;30001;983;1877;-60
2022/05/07 02:14:10;;;;;;;;;;;;;;;9.43;74.18;97443.72;30001;983;1881;-61
2022/05/07 02:14:41;;;;;;;;;;;;;;;9.43;74.27;97443.72;30001;983;1877;-61
2022/05/07 02:15:12;;;;;;;;;;;;;;;9.40;74.48;97448.59;30001;983;1881;-61
2022/05/07 02:15:43;;;;;;;;;;;;;;;9.39;74.46;97436.12;30001;983;1877;-62
2022/05/07 02:16:15;;;;;;;;;;;;;;;9.39;74.13;97441.53;30001;983;1881;-62
2022/05/07 02:16:45;;;;;;;;;;;;;;;9.40;74.61;97439.66;30001;983;1877;-60
2022/05/07 02:17:16;;;;;;;;;;;;;;;9.37;74.49;97441.00;30001;983;1881;-63
2022/05/07 02:17:47;;;;;;;;;;;;;;;9.38;74.16;97439.91;30001;982;1864;-62
2022/05/07 02:18:18;;;;;;;;;;;;;;;9.38;74.55;97442.63;30001;982;1873;-62
2022/05/07 02:18:49;;;;;;;;;;;;;;;9.36;74.24;97436.66;30001;982;1877;-62
2022/05/07 02:19:20;;;;;;;;;;;;;;;9.37;74.48;97442.88;30001;982;1882;-63
2022/05/07 02:19:51;;;;;;;;;;;;;;;9.37;74.48;97438.28;30001;982;1878;-60
2022/05/07 02:20:22;;;;;;;;;;;;;;;9.37;74.22;97438.28;30001;983;1881;-62
2022/05/07 02:20:56;;;;;;;;;;;;;;;9.37;73.83;97438.28;30001;983;1877;-61
2022/05/07 02:21:28;;;;;;;;;;;;;;;9.38;73.97;97439.91;30001;983;1881;-61
2022/05/07 02:21:59;;;;;;;;;;;;;;;9.38;74.39;97445.31;30001;983;1864;-62
2022/05/07 02:22:30;;;;;;;;;;;;;;;9.38;74.32;97439.09;30001;983;1873;-62
2022/05/07 02:23:01;;;;;;;;;;;;;;;9.37;74.09;97435.56;30001;983;1877;-60
2022/05/07 02:23:31;;;;;;;;;;;;;;;9.37;74.30;97438.28;30001;983;1881;-62
2022/05/07 02:24:02;;;;;;;;;;;;;;;9.37;73.89;97438.28;30001;983;1864;-62
2022/05/07 02:24:33;;;;;;;;;;;;;;;9.37;74.05;97437.47;30001;982;1873;-61
2022/05/07 02:25:05;;;;;;;;;;;;;;;9.36;74.08;97436.66;30001;982;1877;-60
2022/05/07 02:25:36;;;;;;;;;;;;;;;9.35;74.06;97435.06;30001;986;1873;-63
2022/05/07 02:26:07;;;;;;;;;;;;;;;9.35;74.15;97429.66;30001;982;1882;-62
2022/05/07 02:26:38;;;;;;;;;;;;;;;9.35;73.83;97435.06;30001;982;1878;-62
2022/05/07 02:27:08;;;;;;;;;;;;;;;9.35;74.45;97432.34;30001;982;1882;-60
2022/05/07 02:27:41;;;;;;;;;;;;;;;9.35;74.19;97429.66;30001;983;1864;-62
2022/05/07 02:28:12;;;;;;;;;;;;;;;9.35;74.34;97435.06;30001;983;1872;-62
2022/05/07 02:28:44;;;;;;;;;;;;;;;9.34;74.32;97433.44;30001;983;1877;-61
2022/05/07 02:29:15;;;;;;;;;;;;;;;9.31;75.46;97439.41;30001;983;1881;-63
2022/05/07 02:29:46;;;;;;;;;;;;;;;9.27;75.75;97434.78;30001;983;1877;-63
2022/05/07 02:30:19;;;;;;;;;;;;;;;9.24;75.69;97432.63;30001;983;1881;-62
2022/05/07 02:30:49;;;;;;;;;;;;;;;9.22;76.20;97438.31;30001;983;1877;-63
2022/05/07 02:31:23;;;;;;;;;;;;;;;9.19;76.97;97435.31;30001;983;1882;-62
2022/05/07 02:32:03;;;;;;;;;;;;;;;9.15;76.23;97434.25;30001;982;1877;-62
2022/05/07 02:32:34;;;;;;;;;;;;;;;9.14;76.35;97438.03;30001;982;1869;-62
2022/05/07 02:33:05;;;;;;;;;;;;;;;9.14;76.05;97432.63;30001;982;1869;-62
2022/05/07 02:33:36;;;;;;;;;;;;;;;9.14;76.34;97435.31;30001;982;1882;-61
2022/05/07 02:34:07;;;;;;;;;;;;;;;9.14;76.01;97433.41;30001;982;1877;-61
2022/05/07 02:34:38;;;;;;;;;;;;;;;9.14;75.57;97428.00;30001;982;1882;-60
2022/05/07 02:35:09;;;;;;;;;;;;;;;9.13;75.97;97434.50;30001;983;1864;-61
2022/05/07 02:35:39;;;;;;;;;;;;;;;9.13;75.85;97437.22;30001;983;1872;-62
2022/05/07 02:36:10;;;;;;;;;;;;;;;9.12;75.52;97441.00;30001;983;1864;-62
2022/05/07 02:36:41;;;;;;;;;;;;;;;9.12;75.75;97440.19;30001;983;1873;-62
2022/05/07 02:37:12;;;;;;;;;;;;;;;9.10;76.07;97432.34;30001;983;1877;-61
2022/05/07 02:37:43;;;;;;;;;;;;;;;9.11;75.87;97441.28;30001;959;1906;-61
2022/05/07 02:38:14;;;;;;;;;;;;;;;9.10;75.87;97442.34;30001;983;1877;-62
2022/05/07 02:38:45;;;;;;;;;;;;;;;9.08;76.25;97434.50;30001;983;1765;-63
2022/05/07 02:39:15;;;;;;;;;;;;;;;9.08;76.10;97437.19;30001;982;1855;-62
2022/05/07 02:39:49;;;;;;;;;;;;;;;9.07;75.85;97435.56;30001;982;1881;-61
2022/05/07 02:40:20;;;;;;;;;;;;;;;9.06;76.04;97442.88;30001;982;1878;-60
2022/05/07 02:42:39;;;;;;;;;;;;;;;8.83;78.55;97448.81;30001;983;1881;-63
2022/05/07 02:43:10;;;;;;;;;;;;;;;8.77;78.63;97443.66;30001;983;1877;-62
2022/05/07 02:43:41;;;;;;;;;;;;;;;8.73;78.00;97436.06;30001;985;1881;-62
2022/05/07 02:44:12;;;;;;;;;;;;;;;8.75;78.15;97446.63;30001;983;1864;-62
2022/05/07 02:44:42;;;;;;;;;;;;;;;8.77;78.22;97432.84;30001;983;1872;-61
2022/05/07 02:45:14;;;;;;;;;;;;;;;8.77;77.83;97444.47;30001;983;1877;-62
2022/05/07 02:45:44;;;;;;;;;;;;;;;8.79;77.97;97446.91;30001;983;1881;-62
2022/05/07 02:46:15;;;;;;;;;;;;;;;8.79;77.60;97441.50;30001;983;1864;-62
2022/05/07 02:46:46;;;;;;;;;;;;;;;8.81;77.36;97439.34;30001;982;1873;-61
2022/05/07 02:47:16;;;;;;;;;;;;;;;8.81;77.18;97439.34;30001;982;1877;-60
2022/05/07 02:47:48;;;;;;;;;;;;;;;8.82;77.54;97440.97;30001;982;1882;-62
2022/05/07 02:48:19;;;;;;;;;;;;;;;8.84;77.44;97444.22;30001;982;1877;-62
2022/05/07 02:48:50;;;;;;;;;;;;;;;8.83;77.11;97443.41;30001;982;1882;-62
2022/05/07 02:49:21;;;;;;;;;;;;;;;8.84;76.95;97433.41;30001;982;1865;-63
2022/05/07 02:49:52;;;;;;;;;;;;;;;8.84;77.13;97445.03;30001;982;1873;-61
2022/05/07 02:50:22;;;;;;;;;;;;;;;8.85;77.04;97440.44;30001;983;1877;-61
2022/05/07 02:50:54;;;;;;;;;;;;;;;8.86;76.96;97439.34;30001;983;1881;-61
2022/05/07 02:51:25;;;;;;;;;;;;;;;8.88;76.79;97431.78;30001;983;1877;-60
2022/05/07 02:51:56;;;;;;;;;;;;;;;8.88;76.70;97437.19;30001;983;1881;-61
2022/05/07 02:52:28;;;;;;;;;;;;;;;8.88;76.86;97431.78;30001;983;1877;-61
2022/05/07 02:52:59;;;;;;;;;;;;;;;8.89;76.81;97436.12;30001;983;1881;-63
2022/05/07 02:53:31;;;;;;;;;;;;;;;8.90;76.76;97435.03;30001;983;1877;-61
2022/05/07 02:54:02;;;;;;;;;;;;;;;8.90;76.85;97432.31;30001;983;1882;-62
2022/05/07 02:54:33;;;;;;;;;;;;;;;8.90;76.70;97430.44;30001;982;1864;-62
2022/05/07 02:55:05;;;;;;;;;;;;;;;8.92;76.72;97432.87;30001;982;1873;-62
2022/05/07 02:55:36;;;;;;;;;;;;;;;8.93;76.52;97427.19;30001;982;1877;-61
2022/05/07 02:56:07;;;;;;;;;;;;;;;8.95;76.38;97435.03;30001;982;1882;-62